Wetterdaten: Mittwoch, 21.01.2015
Datum Zeit Temp. A. Feuchte A. Luftdruck Regen Wind Richtung Richtung Sonnenschein ET UV Solar Taupunkt Windchill Windben Empfang
21.01.2015 00:00 -0,2 C 73 % 1012,3 hPa 0,0 l/m 0,0 km/h (0 Bft) S-SW 207 0 min 0,000 mm 0,0 UV-I 0 W/m -4,4 C -0,2 C 0,0 km/h (0 Bft) 0,00 %
21.01.2015 00:15 -0,2 C 72 % 1012,3 hPa 0,0 l/m 0,0 km/h (0 Bft) S-SW 213 0 min 0,000 mm 0,0 UV-I 0 W/m -4,6 C -0,2 C 0,0 km/h (0 Bft) 0,00 %
21.01.2015 00:30 -0,2 C 73 % 1012,3 hPa 0,0 l/m 0,0 km/h (0 Bft) S-SW 202 0 min 0,000 mm 0,0 UV-I 0 W/m -4,4 C -0,2 C 0,0 km/h (0 Bft) 0,00 %
21.01.2015 00:45 -0,2 C 72 % 1012,3 hPa 0,0 l/m 0,0 km/h (0 Bft) S-SW 213 0 min 0,000 mm 0,0 UV-I 0 W/m -4,6 C -0,2 C 0,0 km/h (0 Bft) 0,00 %
21.01.2015 01:00 -0,2 C 72 % 1012,2 hPa 0,0 l/m 0,0 km/h (0 Bft) S 183 0 min 0,000 mm 0,0 UV-I 0 W/m -4,6 C -0,2 C 0,0 km/h (0 Bft) 0,00 %
21.01.2015 01:15 -0,2 C 73 % 1012,4 hPa 0,0 l/m 0,0 km/h (0 Bft) SW 214 0 min 0,000 mm 0,0 UV-I 0 W/m -4,4 C -0,2 C 0,0 km/h (0 Bft) 0,00 %
21.01.2015 01:30 -0,2 C 73 % 1012,3 hPa 0,0 l/m 0,0 km/h (0 Bft) S-SW 208 0 min 0,000 mm 0,0 UV-I 0 W/m -4,4 C -0,2 C 0,0 km/h (0 Bft) 0,00 %
21.01.2015 01:45 -0,2 C 73 % 1012,3 hPa 0,0 l/m 0,0 km/h (0 Bft) S 184 0 min 0,000 mm 0,0 UV-I 0 W/m -4,4 C -0,2 C 0,0 km/h (0 Bft) 0,00 %
21.01.2015 02:00 -0,3 C 75 % 1012,4 hPa 0,0 l/m 0,0 km/h (0 Bft) SW 219 0 min 0,000 mm 0,0 UV-I 0 W/m -4,2 C -0,3 C 0,0 km/h (0 Bft) 0,00 %
21.01.2015 02:15 -0,3 C 74 % 1012,2 hPa 0,0 l/m 0,0 km/h (0 Bft) S-SW 203 0 min 0,000 mm 0,0 UV-I 0 W/m -4,4 C -0,3 C 0,0 km/h (0 Bft) 0,00 %
21.01.2015 02:30 -0,3 C 74 % 1012,3 hPa 0,0 l/m 0,0 km/h (0 Bft) S-SW 207 0 min 0,000 mm 0,0 UV-I 0 W/m -4,4 C -0,3 C 0,0 km/h (0 Bft) 0,00 %
21.01.2015 02:45 -0,3 C 75 % 1012,2 hPa 0,0 l/m 0,0 km/h (0 Bft) S-SW 211 0 min 0,000 mm 0,0 UV-I 0 W/m -4,2 C -0,3 C 0,0 km/h (0 Bft) 0,00 %
21.01.2015 03:00 -0,3 C 75 % 1012,2 hPa 0,0 l/m 0,0 km/h (0 Bft) S-SW 206 0 min 0,000 mm 0,0 UV-I 0 W/m -4,2 C -0,3 C 0,0 km/h (0 Bft) 0,00 %
21.01.2015 03:15 -0,3 C 75 % 1012,2 hPa 0,0 l/m 0,0 km/h (0 Bft) S-SW 195 0 min 0,000 mm 0,0 UV-I 0 W/m -4,2 C -0,3 C 0,0 km/h (0 Bft) 0,00 %
21.01.2015 03:30 -0,3 C 75 % 1012,1 hPa 0,0 l/m 0,0 km/h (0 Bft) S-SW 204 0 min 0,000 mm 0,0 UV-I 0 W/m -4,2 C -0,3 C 0,0 km/h (0 Bft) 0,00 %
21.01.2015 03:45 -0,3 C 75 % 1012,0 hPa 0,0 l/m 0,0 km/h (0 Bft) S-SW 194 0 min 0,000 mm 0,0 UV-I 0 W/m -4,2 C -0,3 C 0,0 km/h (0 Bft) 0,00 %
21.01.2015 04:00 -0,3 C 76 % 1012,0 hPa 0,0 l/m 0,0 km/h (0 Bft) W-NW 298 0 min 0,000 mm 0,0 UV-I 0 W/m -4,0 C -0,3 C 0,0 km/h (0 Bft) 0,00 %
21.01.2015 04:15 -0,4 C 76 % 1012,0 hPa 0,0 l/m 0,0 km/h (0 Bft) S-SO 155 0 min 0,000 mm 0,0 UV-I 0 W/m -4,1 C -0,4 C 0,0 km/h (0 Bft) 0,00 %
21.01.2015 04:30 -0,4 C 75 % 1012,0 hPa 0,0 l/m 0,0 km/h (0 Bft) S 177 0 min 0,000 mm 0,0 UV-I 0 W/m -4,3 C -0,4 C 0,0 km/h (0 Bft) 0,00 %
21.01.2015 04:45 -0,4 C 74 % 1012,0 hPa 0,0 l/m 0,0 km/h (0 Bft) S 174 0 min 0,000 mm 0,0 UV-I 0 W/m -4,5 C -0,4 C 0,0 km/h (0 Bft) 0,00 %
21.01.2015 05:00 -0,4 C 73 % 1012,0 hPa 0,0 l/m 1,8 km/h (1 Bft) O-NO 72 0 min 0,000 mm 0,0 UV-I 0 W/m -4,6 C -0,4 C 4,0 km/h (1 Bft) 0,00 %
21.01.2015 05:15 -0,4 C 72 % 1012,1 hPa 0,0 l/m 0,7 km/h (0 Bft) SO 131 0 min 0,000 mm 0,0 UV-I 0 W/m -4,8 C -0,4 C 4,0 km/h (1 Bft) 0,00 %
21.01.2015 05:30 -0,4 C 72 % 1012,2 hPa 0,0 l/m 0,4 km/h (0 Bft) O 94 0 min 0,000 mm 0,0 UV-I 0 W/m -4,8 C -0,4 C 4,0 km/h (1 Bft) 0,00 %
21.01.2015 05:45 -0,5 C 72 % 1012,1 hPa 0,0 l/m 0,0 km/h (0 Bft) S-SW 206 0 min 0,000 mm 0,0 UV-I 0 W/m -4,9 C -0,5 C 0,0 km/h (0 Bft) 0,00 %
21.01.2015 06:00 -0,5 C 72 % 1012,2 hPa 0,0 l/m 0,0 km/h (0 Bft) S 188 0 min 0,000 mm 0,0 UV-I 0 W/m -4,9 C -0,5 C 0,0 km/h (0 Bft) 0,00 %
21.01.2015 06:15 -0,5 C 73 % 1012,2 hPa 0,0 l/m 0,0 km/h (0 Bft) W 281 0 min 0,000 mm 0,0 UV-I 0 W/m -4,7 C -0,5 C 0,0 km/h (0 Bft) 0,00 %
21.01.2015 06:30 -0,5 C 74 % 1012,2 hPa 0,0 l/m 0,0 km/h (0 Bft) S-SW 198 0 min 0,000 mm 0,0 UV-I 0 W/m -4,5 C -0,5 C 0,0 km/h (0 Bft) 0,00 %
21.01.2015 06:45 -0,5 C 72 % 1012,2 hPa 0,0 l/m 0,0 km/h (0 Bft) O-SO 107 0 min 0,000 mm 0,0 UV-I 0 W/m -4,9 C -0,5 C 0,0 km/h (0 Bft) 0,00 %
21.01.2015 07:00 -0,5 C 72 % 1012,2 hPa 0,0 l/m 0,0 km/h (0 Bft) O-SO 116 0 min 0,000 mm 0,0 UV-I 0 W/m -4,9 C -0,5 C 0,0 km/h (0 Bft) 0,00 %
21.01.2015 07:15 -0,5 C 72 % 1012,3 hPa 0,0 l/m 0,4 km/h (0 Bft) SO 135 0 min 0,000 mm 0,0 UV-I 0 W/m -4,9 C -0,5 C 4,0 km/h (1 Bft) 0,00 %
21.01.2015 07:30 -0,5 C 72 % 1012,4 hPa 0,0 l/m 3,2 km/h (1 Bft) O 96 0 min 0,000 mm 0,0 UV-I 0 W/m -4,9 C -0,5 C 4,0 km/h (1 Bft) 0,00 %
21.01.2015 07:45 -0,4 C 73 % 1012,5 hPa 0,0 l/m 0,0 km/h (0 Bft) SO 146 0 min 0,000 mm 0,0 UV-I 0 W/m -4,6 C -0,4 C 0,0 km/h (0 Bft) 0,00 %
21.01.2015 08:00 -0,4 C 72 % 1012,6 hPa 0,0 l/m 3,2 km/h (1 Bft) O 101 0 min 0,000 mm 0,0 UV-I 0 W/m -4,8 C -0,4 C 4,0 km/h (1 Bft) 0,00 %
21.01.2015 08:15 -0,4 C 72 % 1012,6 hPa 0,0 l/m 2,9 km/h (1 Bft) O-SO 103 0 min 0,000 mm 0,0 UV-I 0 W/m -4,8 C -0,4 C 4,0 km/h (1 Bft) 0,00 %
21.01.2015 08:30 -0,4 C 72 % 1012,6 hPa 0,0 l/m 0,4 km/h (0 Bft) O-SO 119 0 min 0,000 mm 0,0 UV-I 17 W/m -4,8 C -0,4 C 4,0 km/h (1 Bft) 0,00 %
21.01.2015 08:45 -0,3 C 72 % 1012,5 hPa 0,0 l/m 0,0 km/h (0 Bft) SW 227 0 min 0,000 mm 0,0 UV-I 49 W/m -4,7 C -0,3 C 0,0 km/h (0 Bft) 0,00 %
21.01.2015 09:00 -0,3 C 71 % 1012,8 hPa 0,0 l/m 3,2 km/h (1 Bft) SO 137 0 min 0,000 mm 0,0 UV-I 58 W/m -4,9 C -0,3 C 7,9 km/h (2 Bft) 0,00 %
21.01.2015 09:15 -0,2 C 71 % 1012,7 hPa 0,0 l/m 0,4 km/h (0 Bft) SO 143 0 min 0,000 mm 0,0 UV-I 88 W/m -4,8 C -0,2 C 4,0 km/h (1 Bft) 0,00 %
21.01.2015 09:30 -0,2 C 71 % 1012,8 hPa 0,0 l/m 0,0 km/h (0 Bft) NO 36 0 min 0,000 mm 0,0 UV-I 80 W/m -4,8 C -0,2 C 0,0 km/h (0 Bft) 0,00 %
21.01.2015 09:45 -0,2 C 71 % 1012,7 hPa 0,0 l/m 0,0 km/h (0 Bft) O 86 0 min 0,000 mm 0,0 UV-I 87 W/m -4,8 C -0,2 C 0,0 km/h (0 Bft) 0,00 %
21.01.2015 10:00 -0,2 C 71 % 1012,7 hPa 0,0 l/m 0,0 km/h (0 Bft) N-NO 21 0 min 0,000 mm 0,0 UV-I 84 W/m -4,8 C -0,2 C 0,0 km/h (0 Bft) 0,00 %
21.01.2015 10:15 -0,2 C 71 % 1012,7 hPa 0,0 l/m 0,4 km/h (0 Bft) S-SO 160 0 min 0,000 mm 1,0 UV-I 104 W/m -4,8 C -0,2 C 4,0 km/h (1 Bft) 0,00 %
21.01.2015 10:30 -0,1 C 72 % 1012,7 hPa 0,0 l/m 0,4 km/h (0 Bft) W-SW 253 0 min 0,000 mm 1,0 UV-I 109 W/m -4,5 C -0,1 C 4,0 km/h (1 Bft) 0,00 %
21.01.2015 10:45 -0,2 C 71 % 1012,6 hPa 0,0 l/m 7,2 km/h (2 Bft) O 88 0 min 0,000 mm 1,0 UV-I 177 W/m -4,8 C -1,0 C 11,9 km/h (2 Bft) 0,00 %
21.01.2015 11:00 -0,1 C 70 % 1012,6 hPa 0,0 l/m 2,2 km/h (1 Bft) O 90 15 min 0,000 mm 1,0 UV-I 200 W/m -4,9 C -0,1 C 4,0 km/h (1 Bft) 0,00 %
21.01.2015 11:15 -0,1 C 70 % 1012,3 hPa 0,0 l/m 0,4 km/h (0 Bft) SO 137 15 min 0,000 mm 1,0 UV-I 205 W/m -4,9 C -0,1 C 4,0 km/h (1 Bft) 0,00 %
21.01.2015 11:30 -0,1 C 69 % 1012,3 hPa 0,0 l/m 0,0 km/h (0 Bft) S 176 15 min 0,000 mm 1,0 UV-I 210 W/m -5,1 C -0,1 C 0,0 km/h (0 Bft) 0,00 %
21.01.2015 11:45 0,0 C 69 % 1012,1 hPa 0,0 l/m 0,7 km/h (0 Bft) S-SW 192 15 min 0,000 mm 1,0 UV-I 215 W/m -5,0 C 0,0 C 4,0 km/h (1 Bft) 0,00 %
21.01.2015 12:00 0,1 C 69 % 1012,2 hPa 0,0 l/m 13,3 km/h (3 Bft) O 86 15 min 0,000 mm 1,0 UV-I 222 W/m -4,9 C -5,8 C 15,8 km/h (3 Bft) 0,00 %
21.01.2015 12:15 0,1 C 69 % 1011,9 hPa 0,0 l/m 1,4 km/h (1 Bft) O-SO 105 15 min 0,000 mm 1,0 UV-I 233 W/m -4,9 C 0,1 C 4,0 km/h (1 Bft) 0,00 %
21.01.2015 12:30 0,1 C 68 % 1011,8 hPa 0,0 l/m 4,0 km/h (1 Bft) O-SO 122 15 min 0,000 mm 1,0 UV-I 220 W/m -5,1 C 0,1 C 4,0 km/h (1 Bft) 0,00 %
21.01.2015 12:45 0,2 C 69 % 1011,4 hPa 0,0 l/m 4,0 km/h (1 Bft) O-SO 106 15 min 0,000 mm 1,0 UV-I 215 W/m -4,8 C 0,2 C 4,0 km/h (1 Bft) 0,00 %
21.01.2015 13:00 0,4 C 68 % 1011,1 hPa 0,0 l/m 13,0 km/h (3 Bft) O 83 15 min 0,000 mm 1,0 UV-I 220 W/m -4,8 C -5,2 C 15,8 km/h (3 Bft) 0,00 %
21.01.2015 13:15 0,5 C 67 % 1011,1 hPa 0,0 l/m 9,4 km/h (2 Bft) O 100 15 min 0,000 mm 1,0 UV-I 230 W/m -4,9 C -2,4 C 11,9 km/h (2 Bft) 0,00 %
21.01.2015 13:30 0,4 C 68 % 1010,9 hPa 0,0 l/m 0,7 km/h (0 Bft) N-NW 331 15 min 0,000 mm 1,0 UV-I 240 W/m -4,8 C 0,4 C 4,0 km/h (1 Bft) 0,00 %
21.01.2015 13:45 0,3 C 68 % 1010,9 hPa 0,0 l/m 6,8 km/h (2 Bft) O 96 15 min 0,000 mm 1,0 UV-I 230 W/m -4,9 C -0,1 C 11,9 km/h (2 Bft) 0,00 %
21.01.2015 14:00 0,4 C 67 % 1010,8 hPa 0,0 l/m 11,5 km/h (2 Bft) O 95 0 min 0,000 mm 1,0 UV-I 160 W/m -5,0 C -4,2 C 24,1 km/h (4 Bft) 0,00 %
21.01.2015 14:15 0,4 C 67 % 1011,0 hPa 0,0 l/m 2,9 km/h (1 Bft) O-SO 108 0 min 0,000 mm 1,0 UV-I 100 W/m -5,0 C 0,4 C 7,9 km/h (2 Bft) 0,00 %
21.01.2015 14:30 0,6 C 68 % 1010,8 hPa 0,0 l/m 4,7 km/h (1 Bft) O-NO 71 0 min 0,000 mm 1,0 UV-I 100 W/m -4,6 C 0,6 C 7,9 km/h (2 Bft) 0,00 %
21.01.2015 14:45 0,7 C 67 % 1010,8 hPa 0,0 l/m 6,8 km/h (2 Bft) O-SO 108 0 min 0,000 mm 1,0 UV-I 120 W/m -4,7 C 0,3 C 11,9 km/h (2 Bft) 0,00 %
21.01.2015 15:00 0,8 C 68 % 1010,3 hPa 0,0 l/m 2,9 km/h (1 Bft) N-NO 21 0 min 0,000 mm 1,0 UV-I 110 W/m -4,4 C 0,8 C 4,0 km/h (1 Bft) 0,00 %
21.01.2015 15:15 0,9 C 67 % 1010,2 hPa 0,0 l/m 7,2 km/h (2 Bft) O-SO 103 0 min 0,000 mm 0,0 UV-I 98 W/m -4,5 C 0,1 C 7,9 km/h (2 Bft) 0,00 %
21.01.2015 15:30 0,9 C 69 % 1010,2 hPa 0,0 l/m 9,0 km/h (2 Bft) S 173 0 min 0,000 mm 0,0 UV-I 41 W/m -4,1 C -1,6 C 15,8 km/h (3 Bft) 0,00 %
21.01.2015 15:45 0,9 C 69 % 1010,2 hPa 0,0 l/m 9,7 km/h (2 Bft) O-NO 73 0 min 0,000 mm 0,0 UV-I 7 W/m -4,1 C -2,2 C 11,9 km/h (2 Bft) 0,00 %
21.01.2015 16:00 1,0 C 69 % 1010,3 hPa 0,0 l/m 6,5 km/h (2 Bft) O-SO 110 0 min 0,000 mm 0,0 UV-I 0 W/m -4,0 C 0,9 C 7,9 km/h (2 Bft) 0,00 %
21.01.2015 16:15 1,0 C 69 % 1010,3 hPa 0,0 l/m 10,8 km/h (2 Bft) O-SO 106 0 min 0,000 mm 0,0 UV-I 0 W/m -4,0 C -3,0 C 11,9 km/h (2 Bft) 0,00 %
21.01.2015 16:30 1,0 C 69 % 1010,4 hPa 0,0 l/m 5,8 km/h (2 Bft) O 95 0 min 0,000 mm 0,0 UV-I 0 W/m -4,0 C 1,0 C 11,9 km/h (2 Bft) 0,00 %
21.01.2015 16:45 1,0 C 69 % 1010,2 hPa 0,0 l/m 5,4 km/h (1 Bft) O-SO 104 0 min 0,000 mm 0,0 UV-I 0 W/m -4,0 C 1,0 C 7,9 km/h (2 Bft) 0,00 %
21.01.2015 17:00 1,0 C 69 % 1010,2 hPa 0,0 l/m 7,9 km/h (2 Bft) O 98 0 min 0,000 mm 0,0 UV-I 0 W/m -4,0 C -0,5 C 11,9 km/h (2 Bft) 0,00 %
21.01.2015 17:15 1,0 C 70 % 1010,3 hPa 0,0 l/m 0,0 km/h (0 Bft) W 260 0 min 0,000 mm 0,0 UV-I 0 W/m -3,8 C 1,0 C 0,0 km/h (0 Bft) 0,00 %
21.01.2015 17:30 1,0 C 70 % 1010,0 hPa 0,0 l/m 12,2 km/h (2 Bft) O-SO 112 0 min 0,000 mm 0,0 UV-I 0 W/m -3,8 C -4,0 C 15,8 km/h (3 Bft) 0,00 %
21.01.2015 17:45 1,0 C 71 % 1009,8 hPa 0,0 l/m 5,8 km/h (2 Bft) O-SO 110 0 min 0,000 mm 0,0 UV-I 0 W/m -3,7 C 1,0 C 7,9 km/h (2 Bft) 0,00 %
21.01.2015 18:00 1,1 C 70 % 1009,7 hPa 0,0 l/m 19,8 km/h (3 Bft) O-SO 110 0 min 0,000 mm 0,0 UV-I 0 W/m -3,7 C -8,1 C 28,1 km/h (4 Bft) 0,00 %
21.01.2015 18:15 1,1 C 71 % 1010,2 hPa 0,0 l/m 2,9 km/h (1 Bft) SW 218 0 min 0,000 mm 0,0 UV-I 0 W/m -3,6 C 1,1 C 4,0 km/h (1 Bft) 0,00 %
21.01.2015 18:30 1,1 C 70 % 1010,0 hPa 0,0 l/m 14,4 km/h (3 Bft) O-SO 117 0 min 0,000 mm 0,0 UV-I 0 W/m -3,7 C -5,3 C 15,8 km/h (3 Bft) 0,00 %
21.01.2015 18:45 1,1 C 71 % 1010,0 hPa 0,0 l/m 9,7 km/h (2 Bft) O-SO 105 0 min 0,000 mm 0,0 UV-I 0 W/m -3,6 C -2,0 C 11,9 km/h (2 Bft) 0,00 %
21.01.2015 19:00 1,1 C 71 % 1010,0 hPa 0,0 l/m 8,3 km/h (2 Bft) O 96 0 min 0,000 mm 0,0 UV-I 0 W/m -3,6 C -0,8 C 11,9 km/h (2 Bft) 0,00 %
21.01.2015 19:15 1,1 C 71 % 1009,9 hPa 0,0 l/m 9,7 km/h (2 Bft) SO 131 0 min 0,000 mm 0,0 UV-I 0 W/m -3,6 C -2,0 C 11,9 km/h (2 Bft) 0,00 %
21.01.2015 19:30 1,1 C 71 % 1009,9 hPa 0,0 l/m 6,5 km/h (2 Bft) S 174 0 min 0,000 mm 0,0 UV-I 0 W/m -3,6 C 1,0 C 7,9 km/h (2 Bft) 0,00 %
21.01.2015 19:45 1,1 C 72 % 1009,9 hPa 0,0 l/m 14,8 km/h (3 Bft) O 81 0 min 0,000 mm 0,0 UV-I 0 W/m -3,4 C -5,5 C 15,8 km/h (3 Bft) 0,00 %
21.01.2015 20:00 1,1 C 72 % 1009,9 hPa 0,0 l/m 9,7 km/h (2 Bft) O 84 0 min 0,000 mm 0,0 UV-I 0 W/m -3,4 C -2,0 C 11,9 km/h (2 Bft) 0,00 %
21.01.2015 20:15 1,1 C 72 % 1009,7 hPa 0,0 l/m 12,2 km/h (2 Bft) O 98 0 min 0,000 mm 0,0 UV-I 0 W/m -3,4 C -3,9 C 15,8 km/h (3 Bft) 0,00 %
21.01.2015 20:30 1,1 C 73 % 1009,7 hPa 0,0 l/m 3,2 km/h (1 Bft) O-SO 117 0 min 0,000 mm 0,0 UV-I 0 W/m -3,2 C 1,1 C 7,9 km/h (2 Bft) 0,00 %
21.01.2015 20:45 1,0 C 73 % 1009,8 hPa 0,0 l/m 3,2 km/h (1 Bft) O 92 0 min 0,000 mm 0,0 UV-I 0 W/m -3,3 C 1,0 C 7,9 km/h (2 Bft) 0,00 %
21.01.2015 21:00 1,0 C 72 % 1009,6 hPa 0,0 l/m 2,9 km/h (1 Bft) SO 140 0 min 0,000 mm 0,0 UV-I 0 W/m -3,5 C 1,0 C 7,9 km/h (2 Bft) 0,00 %
21.01.2015 21:15 0,9 C 73 % 1009,5 hPa 0,0 l/m 2,9 km/h (1 Bft) O-SO 102 0 min 0,000 mm 0,0 UV-I 0 W/m -3,4 C 0,9 C 7,9 km/h (2 Bft) 0,00 %
21.01.2015 21:30 0,9 C 72 % 1009,6 hPa 0,0 l/m 4,0 km/h (1 Bft) O 88 0 min 0,000 mm 0,0 UV-I 0 W/m -3,6 C 0,9 C 7,9 km/h (2 Bft) 0,00 %
21.01.2015 21:45 0,9 C 73 % 1009,6 hPa 0,0 l/m 0,7 km/h (0 Bft) O 85 0 min 0,000 mm 0,0 UV-I 0 W/m -3,4 C 0,9 C 4,0 km/h (1 Bft) 0,00 %
21.01.2015 22:00 0,9 C 73 % 1009,5 hPa 0,0 l/m 0,4 km/h (0 Bft) O-NO 74 0 min 0,000 mm 0,0 UV-I 0 W/m -3,4 C 0,9 C 4,0 km/h (1 Bft) 0,00 %
21.01.2015 22:15 1,0 C 73 % 1009,3 hPa 0,0 l/m 2,9 km/h (1 Bft) O-SO 109 0 min 0,000 mm 0,0 UV-I 0 W/m -3,3 C 1,0 C 4,0 km/h (1 Bft) 0,00 %
21.01.2015 22:30 1,0 C 74 % 1009,3 hPa 0,0 l/m 0,7 km/h (0 Bft) N-NW 347 0 min 0,000 mm 0,0 UV-I 0 W/m -3,1 C 1,0 C 4,0 km/h (1 Bft) 0,00 %
21.01.2015 22:45 1,1 C 74 % 1009,4 hPa 0,0 l/m 1,8 km/h (1 Bft) NO 44 0 min 0,000 mm 0,0 UV-I 0 W/m -3,0 C 1,1 C 7,9 km/h (2 Bft) 0,00 %
21.01.2015 23:00 1,2 C 76 % 1009,2 hPa 0,0 l/m 0,0 km/h (0 Bft) SO 131 0 min 0,000 mm 0,0 UV-I 0 W/m -2,5 C 1,2 C 0,0 km/h (0 Bft) 0,00 %
21.01.2015 23:15 1,2 C 76 % 1009,2 hPa 0,0 l/m 6,8 km/h (2 Bft) S 172 0 min 0,000 mm 0,0 UV-I 0 W/m -2,5 C 0,8 C 11,9 km/h (2 Bft) 0,00 %
21.01.2015 23:30 1,2 C 77 % 1009,1 hPa 0,0 l/m 4,3 km/h (1 Bft) NO 50 0 min 0,000 mm 0,0 UV-I 0 W/m -2,4 C 1,2 C 11,9 km/h (2 Bft) 0,00 %
21.01.2015 23:45 1,2 C 78 % 1009,0 hPa 0,0 l/m 4,3 km/h (1 Bft) S 179 0 min 0,000 mm 0,0 UV-I 0 W/m -2,2 C 1,2 C 7,9 km/h (2 Bft) 0,00 %
_ Min-Zeit 05:45 13:15 23:45 - 00:00 - - - - - - 12:30 18:00 00:00 00:00
Minimum _ -0,5 C 67 % 1009,0 hPa - 0,0 km/h (0 Bft) - - - - - - -5,1 C -8,1 C 0,0 km/h (0 Bft) 0,00 %
_ Max-Zeit 23:00 23:45 09:00 00:00 18:00 - - 11:00 00:00 10:15 13:30 23:45 23:00 18:00 00:00
Maximum _ 1,2 C 78 % 1012,8 hPa 0,0 l/m 19,8 km/h
O-SO (3 Bft)
- - 15 min 0,000 mm 1,0 UV-I 240 W/m -2,2 C 1,2 C 28,1 km/h
O-SO (4 Bft)
0,00 %
Durchschnitt _ 0,3 C 72 % 1011,2 hPa #0,0 l/m 3,5 km/h (1 Bft) O-SO - #3:00 h #0,000 mm 1,0 UV-I 141 W/m -4,2 C -0,5 C 5,7 km/h (1 Bft) 0,00 %